Latest Weather Observations for Bairnsdale

IDV60801

Issued at 1:35 pm EST Monday 15 September 2014 (issued every 30 minutes, with the page automatically refreshed every 10 minutes)

About weather observations | Map of weather stations | Latest weather observations for VIC | Other Formats
Station Details ID: 085279 Name: BAIRNSDALE AIRPORT Lat: -37.88 Lon: 147.57 Height: 49.4 m
Data from the previous 72 hours. | See also: Recent months at Bairnsdale
Date/Time
EST
Temp
°C
App
Temp
°C
Dew
Point
Rel
Hum
%
Delta-T
°C
Wind Press
QNH
hPa
Press
MSL
hPa
Rain
since 9 am
mm
Dir
 
Spd
km/h
Gust
km/h
Spd
kts
Gust
kts
15/01:30pm 14.7 11.1 9.7 72 2.6 ESE 19 24 10 13 1014.3 1014.3 0.0
15/01:00pm 14.9 11.7 9.9 72 2.6 ESE 17 24 9 13 1014.8 1014.8 0.0
15/12:30pm 14.7 11.7 10.5 76 2.2 ESE 17 20 9 11 1015.3 1015.3 0.0
15/12:00pm 14.2 11.1 10.2 77 2.1 SE 17 20 9 11 1015.9 1015.9 0.0
15/11:30am 13.9 11.2 8.9 72 2.5 E 13 17 7 9 1016.4 1016.4 0.0
15/11:00am 13.1 10.7 8.8 75 2.2 E 11 15 6 8 1016.7 1016.7 0.0
15/10:30am 12.6 9.3 8.1 74 2.2 E 15 19 8 10 1016.9 1016.9 0.0
15/10:00am 12.0 10.4 8.8 81 1.6 E 7 11 4 6 1017.3 1017.3 0.0
15/09:30am 11.3 9.6 8.3 82 1.5 ENE 7 9 4 5 1017.6 1017.6 0.0
15/09:00am 11.5 10.9 10.4 93 0.6 N 4 9 2 5 1017.7 1017.7 0.0
15/08:30am 10.0 10.0 9.9 99 0.1 CALM 0 4 0 2 1018.0 1018.0 0.0
15/08:00am 10.0 10.0 9.9 99 0.1 CALM 0 0 0 0 1018.1 1018.1 0.0
15/07:30am 8.7 8.4 8.6 99 0.0 CALM 0 0 0 0 1017.9 1017.9 0.0
15/07:00am 7.5 6.9 7.4 99 0.0 CALM 0 0 0 0 1017.7 1017.7 0.0
15/06:49am 6.0 5.1 5.9 99 0.0 CALM 0 0 0 0 1017.5 1017.5 0.0
15/06:30am 4.7 3.5 4.4 98 0.1 CALM 0 0 0 0 1017.4 1017.4 0.0
15/06:25am 4.7 3.5 4.4 98 0.1 CALM 0 0 0 0 1017.3 1017.3 0.0
15/06:19am 5.5 4.5 5.4 99 0.0 CALM 0 0 0 0 1017.2 1017.2 0.0
15/06:00am 5.4 3.2 5.3 99 0.0 NW 6 6 3 3 1017.1 1017.1 0.0
15/05:30am 4.8 2.3 4.5 98 0.1 NNW 7 9 4 5 1017.1 1017.1 0.0
15/05:00am 6.3 4.1 6.2 99 0.0 NNW 7 9 4 5 1017.1 1017.1 0.0
15/04:41am 5.7 3.6 5.6 99 0.0 NNW 6 7 3 4 1017.1 1017.1 0.0
15/04:30am 6.5 4.5 6.4 99 0.0 NW 6 6 3 3 1017.1 1017.1 0.0
15/04:26am 6.8 4.9 6.7 99 0.0 NW 6 7 3 4 1017.1 1017.1 0.0
15/04:00am 6.0 3.7 5.7 98 0.1 NW 7 7 4 4 1017.4 1017.4 0.0
15/03:59am 6.1 3.8 5.8 98 0.1 NW 7 9 4 5 1017.4 1017.4 0.0
15/03:30am 6.8 4.3 6.7 99 0.0 NNW 9 11 5 6 1017.4 1017.4 0.0
15/03:00am 6.5 4.3 6.2 98 0.1 NW 7 9 4 5 1017.7 1017.7 0.0
15/02:30am 7.1 4.3 7.0 99 0.0 NNW 11 13 6 7 1018.1 1018.1 0.0
15/02:00am 6.7 4.5 6.4 98 0.1 NW 7 9 4 5 1018.3 1018.3 0.0
15/01:30am 7.3 4.5 7.0 98 0.1 NNW 11 13 6 7 1018.5 1018.5 0.0
15/01:00am 7.0 4.5 6.6 97 0.2 NW 9 11 5 6 1019.0 1019.0 0.0
15/12:30am 7.4 4.6 7.0 97 0.2 NNW 11 11 6 6 1019.0 1019.0 0.0
15/12:00am 5.8 3.0 5.2 96 0.3 NW 9 11 5 6 1019.1 1019.1 0.0
 
Date/Time
EST
Temp
°C
App
Temp
°C
Dew
Point
Rel
Hum
%
Delta-T
°C
Wind Press
QNH
hPa
Press
MSL
hPa
Rain
since 9 am
mm
Dir
 
Spd
km/h
Gust
km/h
Spd
kts
Gust
kts
14/11:30pm 6.0 3.2 5.3 95 0.3 NW 9 11 5 6 1019.4 1019.4 0.0
14/11:00pm 6.8 5.9 5.9 94 0.4 CALM 0 0 0 0 1019.5 1019.5 0.0
14/10:30pm 6.3 4.4 4.9 91 0.6 WSW 4 6 2 3 1019.7 1019.7 0.0
14/10:00pm 7.7 5.8 6.5 92 0.5 W 6 7 3 4 1019.9 1019.9 0.0
14/09:30pm 8.1 6.1 6.9 92 0.6 NW 7 9 4 5 1020.0 1020.0 0.0
14/09:00pm 8.2 5.8 6.8 91 0.6 NW 9 11 5 6 1020.0 1020.0 0.0
14/08:30pm 8.1 6.0 6.7 91 0.6 N 7 9 4 5 1019.9 1019.9 0.0
14/08:00pm 8.0 6.0 6.1 88 0.9 NNE 6 7 3 4 1019.7 1019.7 0.0
14/07:30pm 9.6 8.5 7.0 84 1.2 NE 2 6 1 3 1019.5 1019.5 0.0
14/07:00pm 10.8 9.1 7.7 81 1.5 NNE 6 9 3 5 1019.3 1019.3 0.0
14/06:30pm 10.8 8.9 7.5 80 1.6 E 7 7 4 4 1019.1 1019.1 0.0
14/06:00pm 11.5 9.6 7.4 76 2.0 E 7 9 4 5 1018.8 1018.8 0.0
14/05:30pm 13.2 10.8 8.7 74 2.3 ESE 11 13 6 7 1018.7 1018.7 0.0
14/05:00pm 14.1 11.7 8.7 70 2.7 ESE 11 13 6 7 1018.6 1018.6 0.0
14/04:30pm 14.9 11.7 8.4 65 3.3 SE 15 19 8 10 1018.4 1018.4 0.0
14/04:00pm 15.4 11.8 8.4 63 3.5 SE 17 20 9 11 1018.3 1018.3 0.0
14/03:30pm 15.5 11.3 8.3 62 3.6 SSE 20 26 11 14 1018.3 1018.3 0.0
14/03:00pm 16.0 11.3 7.7 58 4.2 SSE 22 28 12 15 1018.2 1018.2 0.0
14/02:30pm 17.2 13.3 8.6 57 4.4 SSE 19 26 10 14 1018.2 1018.2 0.0
14/02:00pm 17.8 11.5 5.7 45 5.9 SW 28 35 15 19 1018.4 1018.4 0.0
14/01:30pm 17.9 11.5 5.2 43 6.1 WSW 28 33 15 18 1018.6 1018.6 0.0
14/01:00pm 17.8 12.5 6.7 48 5.5 WSW 24 39 13 21 1018.9 1018.9 0.0
14/12:30pm 16.8 11.8 6.3 50 5.1 WSW 22 35 12 19 1019.3 1019.3 0.0
14/12:00pm 17.1 11.7 6.3 49 5.3 W 24 35 13 19 1019.7 1019.7 0.0
14/11:30am 17.1 13.7 7.7 54 4.7 W 15 22 8 12 1020.1 1020.1 0.0
14/11:00am 15.8 11.2 6.5 54 4.5 WSW 20 32 11 17 1020.4 1020.4 0.0
14/10:30am 16.0 12.5 7.2 56 4.4 NW 15 19 8 10 1020.5 1020.5 0.0
14/10:00am 15.3 12.3 7.8 61 3.7 NW 13 20 7 11 1020.9 1020.9 0.0
14/09:30am 14.0 11.3 8.8 71 2.6 NW 13 17 7 9 1021.1 1021.1 0.0
14/09:00am 13.0 10.4 9.3 78 1.9 NW 13 19 7 10 1021.3 1021.3 0.0
14/08:30am 11.6 9.3 9.0 84 1.3 NNW 11 13 6 7 1021.2 1021.2 0.0
14/08:00am 10.4 7.9 8.2 86 1.1 NW 11 17 6 9 1021.2 1021.2 0.0
14/07:30am 9.3 6.3 7.9 91 0.7 WNW 13 17 7 9 1021.2 1021.2 0.0
14/07:00am 7.9 4.7 7.0 94 0.4 NW 13 15 7 8 1020.9 1020.9 0.0
14/06:30am 7.2 3.9 6.3 94 0.4 WNW 13 15 7 8 1020.8 1020.8 0.0
14/06:00am 6.9 3.5 5.7 92 0.5 NNW 13 15 7 8 1020.7 1020.7 0.0
14/05:30am 6.6 3.8 5.2 91 0.6 NW 9 11 5 6 1020.9 1020.9 0.0
14/05:00am 7.6 5.0 5.9 89 0.8 NW 9 11 5 6 1020.8 1020.8 0.0
14/04:30am 8.8 6.1 7.3 90 0.7 NNW 11 15 6 8 1021.0 1021.0 0.0
14/04:00am 8.5 5.7 7.1 91 0.7 NNW 11 13 6 7 1021.2 1021.2 0.0
14/03:30am 8.6 5.7 6.7 88 0.9 WNW 11 13 6 7 1021.4 1021.4 0.0
14/03:00am 9.4 7.4 7.3 87 1.0 WNW 7 9 4 5 1021.6 1021.7 0.0
14/02:30am 9.5 6.9 7.6 88 0.9 WNW 11 13 6 7 1022.1 1022.2 0.0
14/02:00am 9.6 7.4 7.7 88 0.9 NW 9 9 5 5 1022.4 1022.5 0.0
14/01:30am 9.6 9.1 7.7 88 0.9 CALM 0 0 0 0 1022.3 1022.4 0.0
14/01:00am 10.0 9.4 7.4 84 1.2 CALM 0 0 0 0 1022.3 1022.4 0.0
14/12:30am 10.4 9.8 7.3 81 1.5 CALM 0 0 0 0 1022.4 1022.5 0.0
14/12:00am 10.8 8.9 6.9 77 1.8 NNE 6 7 3 4 1022.4 1022.5 0.0
 
Date/Time
EST
Temp
°C
App
Temp
°C
Dew
Point
Rel
Hum
%
Delta-T
°C
Wind Press
QNH
hPa
Press
MSL
hPa
Rain
since 9 am
mm
Dir
 
Spd
km/h
Gust
km/h
Spd
kts
Gust
kts
13/11:30pm 10.8 8.8 7.1 78 1.8 NE 7 7 4 4 1022.4 1022.5 0.0
13/11:00pm 10.5 8.8 7.6 82 1.4 NE 6 7 3 4 1022.7 1022.8 0.0
13/10:30pm 10.5 9.1 7.2 80 1.6 ESE 4 6 2 3 1022.9 1023.0 0.0
13/10:00pm 10.4 8.4 7.1 80 1.6 ENE 7 9 4 5 1022.9 1023.0 0.0
13/09:30pm 10.3 7.8 6.6 78 1.7 ENE 9 11 5 6 1023.0 1023.1 0.0
13/09:00pm 10.4 8.4 7.1 80 1.6 ENE 7 9 4 5 1023.1 1023.2 0.0
13/08:30pm 10.6 8.6 7.3 80 1.6 ENE 7 9 4 5 1023.2 1023.3 0.0
13/08:00pm 10.3 8.3 7.0 80 1.6 E 7 9 4 5 1023.3 1023.4 0.0
13/07:30pm 9.5 7.5 6.2 80 1.5 E 6 9 3 5 1023.3 1023.4 0.0
13/07:00pm 9.3 7.1 6.0 80 1.5 ESE 7 9 4 5 1023.0 1023.1 0.0
13/06:30pm 10.2 7.7 6.4 77 1.8 ESE 9 11 5 6 1022.8 1022.9 0.0
13/06:00pm 10.8 8.3 6.6 75 2.0 ESE 9 11 5 6 1022.6 1022.7 0.0
13/05:30pm 12.2 9.4 6.9 70 2.5 ESE 11 15 6 8 1022.5 1022.6 0.0
13/05:00pm 12.8 9.6 6.8 67 2.9 E 13 17 7 9 1022.3 1022.4 0.0
13/04:30pm 13.3 9.7 6.9 65 3.1 E 15 20 8 11 1022.1 1022.2 0.0
13/04:00pm 14.4 10.9 7.2 62 3.5 ESE 15 20 8 11 1021.9 1022.0 0.0
13/03:30pm 14.8 11.7 7.1 60 3.8 ESE 13 20 7 11 1021.9 1022.0 0.0
13/03:00pm 15.1 11.6 7.4 60 3.8 SSE 15 20 8 11 1022.0 1022.1 0.0
13/02:30pm 15.4 12.3 7.4 59 4.0 SE 13 19 7 10 1022.0 1022.1 0.0
13/02:00pm 15.4 11.9 7.4 59 4.0 SE 15 20 8 11 1022.4 1022.5 0.0
13/01:30pm 15.9 12.9 7.7 58 4.1 SE 13 22 7 12 1022.5 1022.6 0.0
13/01:00pm 15.5 12.7 7.0 57 4.2 SE 11 17 6 9 1022.9 1023.0 0.0
13/12:30pm 15.4 13.4 6.9 57 4.2 SSE 7 15 4 8 1023.3 1023.4 0.0
13/12:00pm 14.8 12.8 6.4 57 4.0 E 6 11 3 6 1024.0 1024.1 0.0
13/11:30am 14.7 12.5 6.0 56 4.2 NNE 7 13 4 7 1024.6 1024.7 0.0
13/11:00am 14.3 12.6 5.9 57 4.0 WNW 4 9 2 5 1025.1 1025.2 0.0
13/10:30am 13.3 11.0 5.9 61 3.5 WSW 7 13 4 7 1025.5 1025.6 0.0
13/10:00am 13.5 11.5 6.1 61 3.5 NNW 6 7 3 4 1025.9 1026.0 0.0
13/09:30am 12.5 10.6 6.8 68 2.7 S 6 9 3 5 1026.2 1026.3 0.0
13/09:00am 11.2 9.3 8.9 86 1.1 NW 9 13 5 7 1026.6 1026.7 0.0
13/08:30am 9.0 6.6 8.7 98 0.1 NW 11 13 6 7 1026.5 1026.6 0.0
13/08:00am 7.9 5.3 7.8 99 0.0 NNW 11 13 6 7 1026.4 1026.5 0.0
13/07:30am 6.5 4.5 6.4 99 0.0 NW 6 7 3 4 1026.4 1026.5 0.0
13/07:03am 4.9 3.0 4.8 99 0.0 NW 4 6 2 3 1026.4 1026.5 0.0
13/07:00am 4.7 2.7 4.6 99 0.0 NW 4 6 2 3 1026.4 1026.5 0.0
13/06:30am 2.6 -0.4 2.3 98 0.1 WSW 7 9 4 5 1026.1 1026.2 0.0
13/06:00am 2.7 -0.1 2.3 97 0.2 SW 6 7 3 4 1025.8 1025.9 0.0
13/05:30am 3.1 0.8 2.7 97 0.2 W 4 6 2 3 1025.5 1025.6 0.0
13/05:00am 4.4 1.9 4.0 97 0.2 NW 6 7 3 4 1025.2 1025.3 0.0
13/04:30am 5.2 2.7 4.8 97 0.2 NW 7 9 4 5 1025.2 1025.3 0.0
13/04:00am 4.5 1.4 3.5 93 0.4 NNW 9 9 5 5 1025.2 1025.3 0.0
13/03:30am 6.7 5.3 5.7 93 0.4 N 2 7 1 4 1025.3 1025.4 0.0
13/03:28am 6.6 5.6 5.6 93 0.4 CALM 0 6 0 3 1025.3 1025.4 0.0
13/03:00am 7.6 5.4 6.4 92 0.5 N 7 9 4 5 1025.6 1025.7 0.0
13/02:30am 8.1 6.1 6.9 92 0.6 NW 7 9 4 5 1025.9 1026.0 0.0
13/02:00am 8.2 6.2 7.1 93 0.5 W 7 9 4 5 1026.2 1026.3 0.0
13/01:30am 7.9 5.5 7.0 94 0.4 WNW 9 11 5 6 1026.3 1026.4 0.0
13/01:00am 7.8 5.0 7.1 95 0.3 NW 11 13 6 7 1026.5 1026.6 0.0
13/12:30am 7.2 4.3 6.5 95 0.3 NW 11 13 6 7 1026.6 1026.7 0.0
13/12:00am 7.3 4.4 6.4 94 0.4 NW 11 13 6 7 1026.7 1026.8 0.0
 
Date/Time
EST
Temp
°C
App
Temp
°C
Dew
Point
Rel
Hum
%
Delta-T
°C
Wind Press
QNH
hPa
Press
MSL
hPa
Rain
since 9 am
mm
Dir
 
Spd
km/h
Gust
km/h
Spd
kts
Gust
kts
12/11:30pm 7.0 4.0 6.1 94 0.4 NW 11 13 6 7 1026.8 1026.9 0.0
12/11:00pm 7.1 3.8 6.4 95 0.3 NW 13 15 7 8 1027.0 1027.1 0.0
12/10:30pm 5.7 2.4 4.8 94 0.4 NW 11 13 6 7 1027.1 1027.2 0.0
12/10:00pm 5.9 3.0 4.9 93 0.4 NW 9 11 5 6 1026.9 1027.0 0.0
12/09:30pm 6.1 3.6 4.9 92 0.5 NW 7 9 4 5 1026.9 1027.0 0.0
12/09:00pm 6.3 4.1 5.1 92 0.5 NNW 6 7 3 4 1026.8 1026.9 0.0
12/08:30pm 6.0 3.7 4.8 92 0.5 NE 6 6 3 3 1026.7 1026.8 0.0
12/08:00pm 5.2 2.7 3.7 90 0.6 NE 6 6 3 3 1026.6 1026.7 0.0
12/07:30pm 6.3 3.9 4.3 87 0.9 NE 6 7 3 4 1026.5 1026.6 0.0
12/07:00pm 7.1 4.8 4.8 85 1.0 E 6 6 3 3 1026.3 1026.4 0.0
12/06:30pm 8.3 6.0 4.9 79 1.5 E 6 6 3 3 1025.9 1026.0 0.0
12/06:00pm 9.7 7.4 5.5 75 1.9 ENE 7 9 4 5 1025.8 1025.9 0.0
12/05:30pm 11.6 9.4 6.3 70 2.5 SE 7 9 4 5 1025.6 1025.7 0.0
12/05:00pm 12.0 9.1 6.3 68 2.7 SSE 11 15 6 8 1025.5 1025.6 0.0
12/04:30pm 12.7 8.6 6.3 65 3.0 SE 17 19 9 10 1025.4 1025.5 0.0
12/04:00pm 13.6 10.0 6.7 63 3.3 SSE 15 20 8 11 1025.3 1025.4 0.0
12/03:30pm 13.4 9.4 6.7 64 3.2 S 17 22 9 12 1025.3 1025.4 0.0
12/03:00pm 13.9 9.8 4.2 52 4.4 SW 15 22 8 12 1025.1 1025.2 0.0
12/02:30pm 13.8 9.3 4.1 52 4.4 SW 17 20 9 11 1024.9 1025.0 0.0
12/02:00pm 14.2 10.7 3.4 48 4.9 SW 11 17 6 9 1024.9 1025.0 0.0

Other Formats:

Comma delimited format used in spreadsheet applications
http://www.bom.gov.au/fwo/IDV60801/IDV60801.94912.axf

JavaScript Object Notation format (JSON) in row-major order
http://www.bom.gov.au/fwo/IDV60801/IDV60801.94912.json